createdAt,value
2022-08-05T04:02:51.875Z,22.39
2022-08-05T04:05:20.724Z,22.50
2022-08-05T04:07:58.629Z,22.55
2022-08-05T04:10:30.815Z,22.60
2022-08-05T04:13:04.210Z,22.63
2022-08-05T04:15:33.355Z,22.65
2022-08-05T04:18:06.861Z,22.50
2022-08-05T04:20:34.947Z,22.48
2022-08-05T04:23:02.602Z,22.56
2022-08-05T04:25:56.456Z,22.58
2022-08-05T04:28:19.323Z,22.59
2022-08-05T04:30:48.109Z,22.59
2022-08-05T04:33:17.527Z,22.55
2022-08-05T04:36:11.151Z,22.46
2022-08-05T04:38:54.999Z,22.34
2022-08-05T04:41:34.075Z,22.17
2022-08-05T04:44:09.426Z,22.17
2022-08-05T04:46:38.522Z,22.14
2022-08-05T04:49:14.708Z,22.09
2022-08-05T04:51:43.984Z,22.13
2022-08-05T04:54:11.977Z,22.16
2022-08-05T04:56:40.179Z,22.19
2022-08-05T04:59:22.343Z,21.99
2022-08-05T05:02:07.653Z,21.99
2022-08-05T05:04:47.757Z,22.13
2022-08-05T05:07:17.163Z,22.22
2022-08-05T05:09:45.095Z,22.30
2022-08-05T05:12:12.955Z,22.26
2022-08-05T05:14:49.330Z,22.32
2022-08-05T05:17:23.293Z,22.30
2022-08-05T05:19:54.265Z,22.33
2022-08-05T05:22:26.562Z,22.29
2022-08-05T05:24:58.146Z,22.22
2022-08-05T05:27:44.395Z,22.25
2022-08-05T05:30:29.347Z,22.11
2022-08-05T05:33:00.569Z,22.17
2022-08-05T05:35:34.283Z,22.04
2022-08-05T05:38:09.471Z,22.17
2022-08-05T05:40:49.954Z,22.25
2022-08-05T05:43:22.382Z,22.29
2022-08-05T05:46:13.694Z,22.22
2022-08-05T05:48:44.502Z,22.05
2022-08-05T05:51:19.357Z,21.87
2022-08-05T05:53:57.828Z,21.93
2022-08-05T05:56:32.182Z,21.99
2022-08-05T05:59:05.638Z,22.04
2022-08-05T06:01:38.197Z,22.10
2022-08-05T06:04:07.574Z,22.09
2022-08-05T06:06:37.043Z,22.03
2022-08-05T06:09:17.369Z,22.07
2022-08-05T06:11:59.623Z,22.18
2022-08-05T06:14:29.891Z,22.12
2022-08-05T06:16:57.869Z,22.13
2022-08-05T06:19:34.598Z,22.02
2022-08-05T06:22:06.409Z,21.77
2022-08-05T06:24:34.886Z,21.59
2022-08-05T06:27:04.059Z,21.57
2022-08-05T06:29:49.268Z,21.54
2022-08-05T06:32:24.921Z,21.63
2022-08-05T06:34:56.692Z,21.69
2022-08-05T06:37:57.826Z,21.70
2022-08-05T06:40:20.691Z,21.73
2022-08-05T06:42:51.879Z,21.66
2022-08-05T06:45:45.128Z,21.65
2022-08-05T06:48:36.310Z,21.66
2022-08-05T06:50:57.608Z,21.58
2022-08-05T06:53:28.270Z,21.46
2022-08-05T06:55:58.147Z,21.38
2022-08-05T06:58:34.974Z,21.36
2022-08-05T07:01:06.098Z,21.34
2022-08-05T07:03:34.549Z,21.32
2022-08-05T07:06:05.894Z,21.26
2022-08-05T07:08:48.050Z,21.20
2022-08-05T07:11:22.327Z,21.16
2022-08-05T07:14:08.473Z,21.18
2022-08-05T07:18:02.349Z,21.25
2022-08-05T07:20:16.845Z,21.20
2022-08-05T07:22:28.420Z,21.19
2022-08-05T07:25:23.553Z,21.16
2022-08-05T07:27:58.150Z,21.18
2022-08-05T07:30:32.107Z,21.13
2022-08-05T07:33:00.843Z,21.18
2022-08-05T07:36:04.849Z,21.16
2022-08-05T07:38:32.234Z,21.16
2022-08-05T07:42:08.121Z,21.23
2022-08-05T07:43:56.872Z,21.09
2022-08-05T07:46:26.499Z,21.11
2022-08-05T07:49:04.012Z,21.11
2022-08-05T07:51:40.421Z,21.09
2022-08-05T07:54:10.155Z,21.07
2022-08-05T07:57:13.325Z,21.03
2022-08-05T07:59:38.148Z,20.79
2022-08-05T08:02:10.736Z,20.82
2022-08-05T08:04:46.222Z,20.78
2022-08-05T08:07:14.987Z,20.82
2022-08-05T08:09:43.162Z,20.78
2022-08-05T08:12:35.134Z,20.87
2022-08-05T08:15:02.605Z,20.93
2022-08-05T08:17:31.691Z,21.08
2022-08-05T08:20:20.996Z,21.06
2022-08-05T08:22:52.234Z,21.03
2022-08-05T08:25:26.723Z,20.91
2022-08-05T08:28:11.447Z,20.79
2022-08-05T08:30:47.978Z,20.77
2022-08-05T08:33:17.742Z,20.84
2022-08-05T08:35:53.846Z,20.71
2022-08-05T08:38:37.703Z,20.84
2022-08-05T08:41:09.039Z,20.70
2022-08-05T08:45:21.058Z,20.81
2022-08-05T08:46:28.684Z,20.87
2022-08-05T08:49:06.093Z,20.92
2022-08-05T08:52:05.873Z,20.99
2022-08-05T08:54:37.127Z,21.19
2022-08-05T08:57:11.573Z,21.35
2022-08-05T08:59:41.835Z,21.50
2022-08-05T09:02:16.611Z,21.40
2022-08-05T09:04:58.128Z,21.32
2022-08-05T09:07:39.981Z,21.38
2022-08-05T09:10:27.847Z,21.33
2022-08-05T09:13:04.463Z,21.29
2022-08-05T09:15:37.113Z,21.27
2022-08-05T09:18:08.870Z,21.30
2022-08-05T09:20:37.754Z,21.36
2022-08-05T09:23:19.739Z,21.41
2022-08-05T09:26:03.193Z,21.34
2022-08-05T09:28:34.059Z,21.28
2022-08-05T09:31:18.246Z,21.26
2022-08-05T09:33:56.214Z,21.30
2022-08-05T09:36:27.575Z,21.32
2022-08-05T09:39:02.892Z,21.31
2022-08-05T09:41:33.159Z,21.24
2022-08-05T09:44:06.085Z,21.19
2022-08-05T09:46:35.659Z,21.19
2022-08-05T09:49:19.653Z,21.08
2022-08-05T09:51:49.366Z,21.08
2022-08-05T09:54:31.443Z,21.02
2022-08-05T09:57:01.516Z,21.00
2022-08-05T09:59:35.212Z,20.98
2022-08-05T10:02:06.959Z,21.04
2022-08-05T10:04:40.861Z,21.15
2022-08-05T10:07:20.294Z,21.05
2022-08-05T10:10:04.335Z,20.96
2022-08-05T10:12:51.114Z,21.00
2022-08-05T10:15:23.120Z,20.94
2022-08-05T10:18:11.819Z,20.90
2022-08-05T10:20:47.737Z,20.87
2022-08-05T10:23:34.181Z,20.90
2022-08-05T10:26:08.313Z,20.92
2022-08-05T10:28:42.900Z,20.86
2022-08-05T10:32:48.183Z,20.93
2022-08-05T10:34:03.324Z,20.92
2022-08-05T10:36:32.031Z,20.88
2022-08-05T10:39:10.178Z,20.91
2022-08-05T10:41:48.201Z,20.82
2022-08-05T10:44:20.110Z,20.76
2022-08-05T10:46:50.989Z,20.74
2022-08-05T10:49:26.930Z,20.74
2022-08-05T10:52:03.272Z,20.85
2022-08-05T10:54:56.297Z,20.90
2022-08-05T10:57:31.780Z,20.91
2022-08-05T11:00:19.854Z,21.00
2022-08-05T11:03:23.347Z,20.94
2022-08-05T11:06:17.893Z,20.80
2022-08-05T11:09:24.499Z,20.88
2022-08-05T11:12:45.437Z,21.00
2022-08-05T11:15:21.754Z,20.94
2022-08-05T11:17:59.134Z,20.94
2022-08-05T11:20:43.897Z,20.97
2022-08-05T11:24:05.093Z,21.02
2022-08-05T11:26:32.877Z,20.96
2022-08-05T11:29:12.196Z,20.93
2022-08-05T11:31:58.826Z,20.89
2022-08-05T11:34:50.831Z,20.76
2022-08-05T11:38:29.526Z,20.82
2022-08-05T11:41:12.829Z,20.81
2022-08-05T11:44:07.508Z,20.85
2022-08-05T11:46:58.178Z,20.85
2022-08-05T11:49:26.897Z,20.87
2022-08-05T11:51:57.993Z,20.83
2022-08-05T11:54:33.779Z,20.73
2022-08-05T11:57:08.470Z,20.65
2022-08-05T11:59:52.756Z,20.62
2022-08-05T12:02:31.329Z,20.70
2022-08-05T12:05:00.922Z,20.66
2022-08-05T12:08:08.585Z,20.58
2022-08-05T12:10:24.805Z,20.49
2022-08-05T12:13:15.525Z,20.40
2022-08-05T12:15:45.048Z,20.34
2022-08-05T12:18:18.795Z,20.34
2022-08-05T12:20:50.361Z,20.43
2022-08-05T12:23:18.151Z,20.40
2022-08-05T12:25:53.587Z,20.43
2022-08-05T12:28:36.794Z,20.45
2022-08-05T12:31:05.714Z,20.50
2022-08-05T12:33:37.183Z,20.51
2022-08-05T12:36:09.175Z,20.55
2022-08-05T12:38:39.887Z,20.46
2022-08-05T12:41:13.205Z,20.42
2022-08-05T12:43:56.475Z,20.38
2022-08-05T12:46:29.435Z,20.49
2022-08-05T12:49:00.879Z,20.50
2022-08-05T12:52:14.006Z,20.41
2022-08-05T12:54:23.263Z,20.53
2022-08-05T12:56:52.864Z,20.61
2022-08-05T12:59:27.641Z,20.69
2022-08-05T13:02:12.657Z,20.67
2022-08-05T13:04:54.509Z,20.72
2022-08-05T13:07:47.776Z,20.86
2022-08-05T13:10:13.936Z,20.94
2022-08-05T13:12:51.138Z,21.08
2022-08-05T13:15:41.782Z,21.13
2022-08-05T13:18:19.867Z,21.16
2022-08-05T13:20:49.248Z,21.14
2022-08-05T13:23:18.043Z,21.17
2022-08-05T13:25:52.252Z,21.23
2022-08-05T13:28:27.582Z,21.28
2022-08-05T13:30:57.642Z,21.32
2022-08-05T13:34:25.161Z,21.24
2022-08-05T13:36:14.391Z,21.07
2022-08-05T13:38:43.155Z,21.03
2022-08-05T13:41:11.675Z,21.02
2022-08-05T13:43:44.822Z,21.08
2022-08-05T13:46:43.968Z,21.08
2022-08-05T13:49:15.231Z,21.03
2022-08-05T13:51:46.628Z,21.04
2022-08-05T13:54:16.578Z,21.03
2022-08-05T13:56:50.843Z,21.05
2022-08-05T13:59:21.462Z,21.04
2022-08-05T14:01:59.268Z,20.87
2022-08-05T14:04:49.660Z,20.92
2022-08-05T14:07:26.073Z,20.95
2022-08-05T14:10:10.953Z,21.05
2022-08-05T14:12:38.664Z,21.08
2022-08-05T14:16:05.045Z,21.06
2022-08-05T14:17:59.561Z,21.06
2022-08-05T14:20:29.368Z,21.12
2022-08-05T14:22:57.528Z,21.21
2022-08-05T14:25:28.075Z,21.22
2022-08-05T14:27:56.644Z,21.27
2022-08-05T14:30:28.185Z,21.25
2022-08-05T14:32:58.640Z,21.36
2022-08-05T14:35:37.569Z,21.53
2022-08-05T14:38:32.506Z,21.63
2022-08-05T14:41:06.441Z,21.71
2022-08-05T14:44:01.957Z,21.84
2022-08-05T14:46:28.193Z,21.85
2022-08-05T14:49:03.462Z,21.83
2022-08-05T14:51:35.444Z,21.74
2022-08-05T14:54:26.595Z,21.77
2022-08-05T14:56:51.041Z,21.87
2022-08-05T14:59:22.340Z,21.88
2022-08-05T15:01:50.955Z,21.94
2022-08-05T15:04:22.367Z,21.96
2022-08-05T15:06:50.510Z,21.91
2022-08-05T15:09:50.450Z,21.82
2022-08-05T15:12:06.847Z,21.78
2022-08-05T15:14:48.256Z,21.84
2022-08-05T15:17:45.807Z,21.86
2022-08-05T15:20:17.095Z,21.96
2022-08-05T15:22:46.330Z,22.03
2022-08-05T15:25:23.420Z,22.10
2022-08-05T15:28:08.673Z,22.19
2022-08-05T15:30:41.503Z,22.30
2022-08-05T15:33:11.805Z,22.42
2022-08-05T15:35:45.417Z,22.53
2022-08-05T15:38:33.632Z,22.58
2022-08-05T15:41:22.821Z,22.51
2022-08-05T15:43:49.599Z,22.42
2022-08-05T15:46:17.333Z,22.41
2022-08-05T15:48:51.922Z,22.46
2022-08-05T15:52:12.907Z,22.40
2022-08-05T15:54:16.252Z,22.39
2022-08-05T15:56:43.958Z,22.52
2022-08-05T15:59:20.199Z,22.64
2022-08-05T16:01:52.678Z,22.73
2022-08-05T16:04:25.398Z,22.72
2022-08-05T16:06:55.971Z,22.75
2022-08-05T16:09:24.665Z,22.72
2022-08-05T16:11:54.833Z,22.64
2022-08-05T16:14:24.791Z,22.66
2022-08-05T16:16:53.690Z,22.56
2022-08-05T16:20:03.158Z,22.49
2022-08-05T16:22:11.004Z,22.60
2022-08-05T16:24:51.671Z,22.59
2022-08-05T16:27:32.254Z,22.55
2022-08-05T16:30:23.276Z,22.54
2022-08-05T16:32:54.766Z,22.51
2022-08-05T16:35:27.911Z,22.48
2022-08-05T16:38:02.957Z,22.54
2022-08-05T16:40:51.700Z,22.53
2022-08-05T16:43:23.889Z,22.38
2022-08-05T16:46:04.249Z,22.25
2022-08-05T16:48:36.539Z,22.22
2022-08-05T16:51:10.114Z,22.12
2022-08-05T16:54:05.726Z,22.18
2022-08-05T16:56:29.902Z,22.19
2022-08-05T16:58:58.094Z,22.18
2022-08-05T17:01:26.004Z,22.22
2022-08-05T17:03:53.871Z,22.26
2022-08-05T17:06:24.461Z,22.23
2022-08-05T17:08:54.553Z,22.21
2022-08-05T17:11:25.993Z,22.28
2022-08-05T17:14:05.698Z,22.28
2022-08-05T17:16:35.999Z,22.18
2022-08-05T17:19:07.805Z,22.09
2022-08-05T17:21:39.383Z,22.11
2022-08-05T17:24:18.520Z,22.01
2022-08-05T17:26:58.387Z,21.88
2022-08-05T17:29:40.260Z,21.86
2022-08-05T17:32:11.907Z,21.82
2022-08-05T17:34:47.859Z,21.78
2022-08-05T17:37:39.523Z,21.70
2022-08-05T17:40:10.850Z,21.60
2022-08-05T17:42:41.639Z,21.56
2022-08-05T17:45:20.646Z,21.56
2022-08-05T17:47:54.049Z,21.56
2022-08-05T17:50:28.045Z,21.49
2022-08-05T17:52:58.758Z,21.45
2022-08-05T17:55:38.389Z,21.45
2022-08-05T17:58:11.209Z,21.39
2022-08-05T18:00:45.296Z,21.39
2022-08-05T18:03:46.173Z,21.34
2022-08-05T18:06:05.902Z,21.34
2022-08-05T18:08:40.558Z,21.22
2022-08-05T18:11:23.188Z,21.16
2022-08-05T18:13:52.742Z,21.06
2022-08-05T18:16:20.759Z,21.03
2022-08-05T18:18:49.881Z,20.97
2022-08-05T18:21:20.075Z,20.99
2022-08-05T18:23:49.351Z,21.02
2022-08-05T18:26:29.332Z,20.95
2022-08-05T18:28:59.804Z,20.94
2022-08-05T18:31:32.947Z,20.92
2022-08-05T18:34:03.295Z,20.90
2022-08-05T18:36:35.186Z,20.86
2022-08-05T18:39:02.890Z,20.85
2022-08-05T18:41:56.809Z,20.86
2022-08-05T18:44:33.197Z,20.88
2022-08-05T18:47:03.696Z,20.74
2022-08-05T18:49:57.836Z,20.84
2022-08-05T18:52:35.647Z,20.87
2022-08-05T18:55:06.624Z,20.83
2022-08-05T18:57:50.062Z,20.64
2022-08-05T19:00:28.736Z,20.58
2022-08-05T19:03:04.093Z,20.63
2022-08-05T19:06:13.167Z,20.59
2022-08-05T19:08:22.425Z,20.55
2022-08-05T19:10:59.658Z,20.54
2022-08-05T19:13:35.642Z,20.52
2022-08-05T19:16:05.532Z,20.50
2022-08-05T19:18:53.913Z,20.43
2022-08-05T19:21:27.648Z,20.37
2022-08-05T19:24:07.034Z,20.35
2022-08-05T19:26:54.733Z,20.29
2022-08-05T19:29:26.688Z,20.29
2022-08-05T19:32:05.613Z,20.19
2022-08-05T19:34:36.545Z,20.23
2022-08-05T19:37:04.281Z,20.21
2022-08-05T19:39:32.112Z,20.20
2022-08-05T19:42:15.221Z,20.17
2022-08-05T19:44:45.267Z,20.14
2022-08-05T19:47:16.460Z,20.08
2022-08-05T19:49:45.193Z,20.09
2022-08-05T19:52:31.684Z,20.08
2022-08-05T19:55:07.681Z,20.08
2022-08-05T19:58:06.859Z,20.08
2022-08-05T20:00:39.311Z,19.93
2022-08-05T20:03:08.787Z,19.89
2022-08-05T20:05:42.933Z,19.93
2022-08-05T20:08:11.229Z,19.93
2022-08-05T20:10:38.892Z,19.96
2022-08-05T20:13:12.076Z,19.96
2022-08-05T20:15:52.093Z,19.97
2022-08-05T20:18:33.889Z,19.98
2022-08-05T20:21:04.787Z,20.03
2022-08-05T20:23:40.241Z,20.09
2022-08-05T20:26:20.320Z,20.16
2022-08-05T20:28:50.467Z,20.16
2022-08-05T20:31:23.008Z,20.10
2022-08-05T20:34:05.048Z,20.06
2022-08-05T20:36:32.714Z,20.01
2022-08-05T20:39:00.412Z,19.93
2022-08-05T20:41:43.266Z,19.88
2022-08-05T20:44:17.231Z,19.71
2022-08-05T20:46:48.588Z,19.71
2022-08-05T20:49:24.074Z,19.67
2022-08-05T20:51:54.236Z,19.70
2022-08-05T20:54:22.190Z,19.70
2022-08-05T20:56:49.916Z,19.74
2022-08-05T20:59:26.654Z,19.72
2022-08-05T21:01:57.906Z,19.63
2022-08-05T21:04:26.853Z,19.60
2022-08-05T21:06:55.061Z,19.57
2022-08-05T21:09:23.646Z,19.59
2022-08-05T21:12:10.757Z,19.57
2022-08-05T21:14:39.626Z,19.53
2022-08-05T21:17:08.573Z,19.52
2022-08-05T21:19:46.631Z,19.45
2022-08-05T21:22:18.378Z,19.50
2022-08-05T21:24:51.901Z,19.48
2022-08-05T21:27:20.410Z,19.47
2022-08-05T21:29:52.208Z,19.48
2022-08-05T21:32:23.372Z,19.42
2022-08-05T21:34:56.100Z,19.40
2022-08-05T21:37:41.035Z,19.39
2022-08-05T21:40:13.114Z,19.31
2022-08-05T21:42:44.527Z,19.27
2022-08-05T21:45:17.651Z,19.17
2022-08-05T21:47:56.825Z,19.20
2022-08-05T21:50:25.884Z,19.13
2022-08-05T21:52:53.643Z,19.08
2022-08-05T21:56:01.400Z,19.04
2022-08-05T21:58:16.016Z,18.99
2022-08-05T22:00:51.276Z,19.06
2022-08-05T22:03:51.872Z,19.06
2022-08-05T22:06:08.382Z,19.03
2022-08-05T22:08:36.075Z,19.04
2022-08-05T22:11:15.685Z,19.03
2022-08-05T22:14:34.437Z,18.96
2022-08-05T22:16:41.750Z,18.80
2022-08-05T22:19:57.431Z,18.77
2022-08-05T22:22:07.947Z,18.79
2022-08-05T22:24:53.680Z,18.75
2022-08-05T22:28:08.538Z,18.69
2022-08-05T22:30:32.232Z,18.68
2022-08-05T22:33:03.174Z,18.65
2022-08-05T22:35:47.956Z,18.61
2022-08-05T22:38:17.145Z,18.66
2022-08-05T22:40:49.799Z,18.62
2022-08-05T22:43:36.932Z,18.60
2022-08-05T22:46:12.232Z,18.63
2022-08-05T22:48:43.835Z,18.61
2022-08-05T22:51:15.628Z,18.59
2022-08-05T22:53:50.908Z,18.54
2022-08-05T22:56:30.091Z,18.53
2022-08-05T22:58:59.994Z,18.52
2022-08-05T23:01:50.616Z,18.48
2022-08-05T23:04:18.680Z,18.52
2022-08-05T23:06:48.212Z,18.29
2022-08-05T23:09:27.773Z,18.35
2022-08-05T23:12:04.829Z,18.40
2022-08-05T23:14:33.856Z,18.44
2022-08-05T23:17:24.615Z,18.44
2022-08-05T23:20:03.205Z,18.43
2022-08-05T23:22:32.371Z,18.42
2022-08-05T23:25:01.111Z,18.40
2022-08-05T23:27:42.226Z,18.39
2022-08-05T23:30:16.805Z,18.38
2022-08-05T23:32:45.256Z,18.37
2022-08-05T23:35:13.738Z,18.24
2022-08-05T23:37:43.676Z,18.16
2022-08-05T23:40:12.123Z,18.13
2022-08-05T23:42:39.817Z,18.09
2022-08-05T23:45:13.985Z,17.91
2022-08-05T23:47:48.028Z,17.87
2022-08-05T23:50:17.036Z,17.94
2022-08-05T23:52:51.558Z,17.78
2022-08-05T23:55:21.918Z,17.82
2022-08-05T23:57:52.912Z,17.81
